メインページ
METAR-TAF:

METAR-TAF

空港 :

ロングイェールビーン, ノルウェー

緯度: 78-15N, 経度: 015-28E, 海抜: 2m

現時点の気象観測

当レポートは28分前の10:50(UTC)に作成
南/南西の風 9kt、最大19ktの突風を伴う、南/南東から西の間で変化する
気温 -2°C
湿度 63%
気圧 1011 hPa
視程10km以上
高度2000ftの雲は散在している
高度3500ftの千切れ雲あり
弱いにわか雪

METAR: ENSB 141050Z 20009G19KT 150V270 9999 -SHSN SCT020 BKN035 M02/M08 Q1011 TEMPO 14010KT 4000 -SHSN BKN014 RMK WIND 1400FT 20024KT

時間: 12:18 (11:18 UTC)

予報

予報は14日の 10時(UTC)から 15日の 06時(UTC)まで有効
東/南東の風 8kt
視程10km以上
高度1000ftの雲はほとんどない
高度3000ftの千切れ雲あり
小雪
14日の 10時(UTC)から 14日の 15時(UTC)まで一時的に
の風 15kt、最大25ktの突風を伴う
14日の 10時(UTC)から 14日の 21時(UTC)まで一時的に
視程: 4000m
高度1200ftの千切れ雲あり
弱いにわか雪
14日の 15時(UTC)から 14日の 24時(UTC)まで一時的に
南/南西の風 10kt

TAF: ENSB 1410/1506 12008KT 9999 -SN FEW010 BKN030 TEMPO 1410/1415 18015G25KT TEMPO 1410/1421 4000 -SHSN BKN012 TEMPO 1415/1424 20010KT

4,000以上の空港の気象観測と天気予報(METAR報とTAF報)

利用可能な観測所は地図上に黄色い丸と赤い丸で示す。

丸の上にカーソルを重ねると観測所名を参照できる。

次にクリックすると気象観測と天気予報を参照できる。

マップの切り替え:黒色「×」印の緑ボタンをクリックして拡大、「-」印の緑ボタンをクリックして縮小、緑色の三角印をクリックして隣りの地図に切り替え


METAR-TAF: